M I D A S
Marine Information and Data Acquisition System
Tripno 2256 of the Zeeleeuw from 2012-01-18 07:40:16 to 2012-01-18 16:54:26
Back to CruiseResearch ActivitiesStationsMapUnderway DataData graphs

EquipmentUnitsComments
TimeDGPSUTC
LatitudeDGPSDM.mWGS84
LongitudeDGPSDM.mWGS84
SpeedMeteo Stationm/sRelative wind speed
DirectionMeteo StationdegRelative wind direction
TemperatureMeteo Stationdeg CelciusAir temperature
PressureMeteo StationPaAtmospheric pressure
HumidityMeteo Station%Relative humidity
Missing or incorrect values are displayed as -999
Metereological data collected by the RV Zeeleeuw from 2012-01-18 07:39:57 to 2012-01-18 17:03:28
Time Latitude Longitude Speed Direction Temperature Pressure Humidity
2012-01-18 07:41 51°13.645 2°55.962 3.9 41 1.5 102680 48
2012-01-18 07:42 51°13.672 2°55.858 5.5 28 1.5 102680 48
2012-01-18 07:43 51°13.723 2°55.756 4.9 30 1.5 102680 47
2012-01-18 07:44 51°13.792 2°55.664 1.8 23 1.5 102680 48
2012-01-18 07:45 51°13.871 2°55.609 3.6 341 1.5 102680 49
2012-01-18 07:46 51°13.945 2°55.619 3.1 21 1.5 102680 45
2012-01-18 07:47 51°13.983 2°55.666 4.7 17 1.5 102680 44
2012-01-18 07:48 51°13.999 2°55.618 5.8 257 1.5 102680 46
2012-01-18 07:49 51°14.078 2°55.489 4.5 252 1.6 102680 49
2012-01-18 07:50 51°14.21 2°55.36 3.1 252 1.6 102680 46
2012-01-18 07:51 51°14.361 2°55.224 4.5 26 1.6 102670 46
2012-01-18 07:52 51°14.511 2°55.079 5.6 254 1.7 102660 47
2012-01-18 07:52 51°14.673 2°54.932 6.3 257 1.7 102660 46
2012-01-18 07:53 51°14.845 2°54.758 8 260 1.8 102650 48
2012-01-18 07:54 51°15.011 2°54.564 5.9 256 1.8 102640 46
2012-01-18 07:55 51°15.188 2°54.39 8.5 257 1.9 102640 48
2012-01-18 07:56 51°15.373 2°54.232 6.6 256 2 102640 47
2012-01-18 07:57 51°15.531 2°54.023 7.8 258 2.1 102630 48
2012-01-18 07:58 51°15.675 2°53.793 7.9 253 2.2 102620 49
2012-01-18 07:59 51°15.824 2°53.572 10.5 255 2.2 102630 46
2012-01-18 08:00 51°15.998 2°53.399 6.5 263 2.3 102640 49
2012-01-18 08:01 51°16.187 2°53.253 7.1 261 2.3 102640 48
2012-01-18 08:02 51°16.378 2°53.113 8.3 259 2.3 102640 45
2012-01-18 08:03 51°16.561 2°52.953 7.5 263 2.4 102630 48
2012-01-18 08:04 51°16.745 2°52.796 4.8 261 2.4 102640 47
2012-01-18 08:06 51°16.942 2°52.66 6.1 262 2.4 102640 49
2012-01-18 08:06 51°17.132 2°52.526 6.7 28 2.5 102620 47
2012-01-18 08:07 51°17.344 2°52.465 5.4 269 2.4 102630 44
2012-01-18 08:08 51°17.56 2°52.425 4.9 21 2.3 102640 46
2012-01-18 08:09 51°17.779 2°52.414 2.5 26 2.3 102630 48
2012-01-18 08:10 51°17.999 2°52.41 3.7 27 2.4 102630 47
2012-01-18 08:11 51°18.214 2°52.377 4.1 24 2.4 102630 48
2012-01-18 08:12 51°18.427 2°52.346 3.8 18 2.4 102620 48
2012-01-18 08:13 51°18.645 2°52.333 4.9 25 2.4 102620 49
2012-01-18 08:14 51°18.863 2°52.325 4.9 21 2.5 102610 48
2012-01-18 08:15 51°19.08 2°52.293 6.1 21 2.6 102610 49
2012-01-18 08:16 51°19.297 2°52.28 4.4 20 2.5 102610 47
2012-01-18 08:17 51°19.516 2°52.291 4.8 19 2.6 102610 49
2012-01-18 08:18 51°19.737 2°52.303 4.6 26 2.5 102590 48
2012-01-18 08:19 51°19.956 2°52.292 5.8 22 2.6 102600 46
2012-01-18 08:20 51°20.175 2°52.289 5.8 24 2.6 102590 49
2012-01-18 08:22 51°20.396 2°52.296 5.2 19 2.6 102590 49
2012-01-18 08:22 51°20.609 2°52.326 5.7 21 2.7 102590 47
2012-01-18 08:23 51°20.827 2°52.356 4.2 21 2.8 102590 47
2012-01-18 08:24 51°21.046 2°52.379 4.9 21 2.9 102590 48
2012-01-18 08:25 51°21.265 2°52.4 4 25 2.9 102590 47
2012-01-18 08:26 51°21.488 2°52.432 3.2 21 2.8 102590 48
2012-01-18 08:27 51°21.711 2°52.47 3.9 19 2.9 102590 47
2012-01-18 08:28 51°21.934 2°52.487 4.8 24 2.9 102580 49
2012-01-18 08:29 51°22.158 2°52.515 5.2 18 2.9 102570 47
2012-01-18 08:30 51°22.383 2°52.551 4.4 20 2.9 102570 47
2012-01-18 08:31 51°22.607 2°52.584 4.2 20 2.9 102560 49
2012-01-18 08:32 51°22.831 2°52.639 3.1 19 3.1 102560 50
2012-01-18 08:33 51°23.055 2°52.682 4.6 27 3.2 102560 50
2012-01-18 08:34 51°23.28 2°52.735 2.9 25 3 102560 48
2012-01-18 08:35 51°23.5 2°52.817 2.8 18 3.4 102560 50
2012-01-18 08:36 51°23.722 2°52.905 3.5 44 3.6 102560 49
2012-01-18 08:37 51°23.943 2°52.975 4.8 19 3.6 102560 49
2012-01-18 08:38 51°24.165 2°53.031 4.2 22 3.4 102560 49
2012-01-18 08:39 51°24.385 2°53.097 3.3 26 3.6 102540 50
2012-01-18 08:40 51°24.605 2°53.168 4.9 19 3.8 102570 50
2012-01-18 08:41 51°24.824 2°53.23 5.1 18 3.7 102570 50
2012-01-18 08:42 51°25.045 2°53.286 4 20 3.7 102560 49
2012-01-18 08:43 51°25.264 2°53.362 3.5 23 3.9 102560 49
2012-01-18 08:44 51°25.483 2°53.433 4 22 4 102570 47
2012-01-18 08:45 51°25.703 2°53.508 5 24 3.9 102570 46
2012-01-18 08:46 51°25.924 2°53.571 5.6 25 3.8 102570 47
2012-01-18 08:47 51°26.145 2°53.647 4.8 26 3.7 102580 47
2012-01-18 08:49 51°26.368 2°53.724 5 25 3.6 102580 49
2012-01-18 08:50 51°26.589 2°53.792 4 22 3.7 102580 47
2012-01-18 08:51 51°26.812 2°53.866 3.5 270 3.6 102580 46
2012-01-18 08:51 51°27.03 2°53.946 3.7 18 3.6 102580 47
2012-01-18 08:53 51°27.258 2°54.009 4.4 22 3.7 102580 50
2012-01-18 08:53 51°27.479 2°54.06 5.1 27 3.7 102580 48
2012-01-18 08:54 51°27.706 2°54.113 4 20 3.7 102570 47
2012-01-18 08:55 51°27.935 2°54.186 3.2 19 3.6 102570 50
2012-01-18 08:56 51°28.161 2°54.247 5.8 22 3.8 102560 50
2012-01-18 08:57 51°28.384 2°54.303 4.1 20 3.8 102560 48
2012-01-18 08:58 51°28.606 2°54.353 5.1 20 3.7 102550 46
2012-01-18 08:59 51°28.828 2°54.409 6.3 27 3.8 102550 48
2012-01-18 09:00 51°29.048 2°54.462 6.2 18 3.8 102550 50
2012-01-18 09:02 51°29.273 2°54.483 4.5 21 3.7 102550 50
2012-01-18 09:03 51°29.494 2°54.493 3.9 270 3.8 102540 49
2012-01-18 09:03 51°29.714 2°54.495 5.2 23 3.9 102540 49
2012-01-18 09:04 51°29.936 2°54.484 6.8 268 3.9 102550 50
2012-01-18 09:05 51°30.155 2°54.473 6.4 27 3.8 102540 50
2012-01-18 09:06 51°30.378 2°54.465 6.5 23 3.9 102540 46
2012-01-18 09:07 51°30.601 2°54.459 5.6 21 4 102540 48
2012-01-18 09:09 51°30.825 2°54.44 4.6 20 4 102530 48
2012-01-18 09:09 51°31.045 2°54.422 4.5 23 4.1 102520 50
2012-01-18 09:10 51°31.269 2°54.408 7.8 19 4.2 102520 50
2012-01-18 09:11 51°31.495 2°54.386 7.2 23 4.2 102510 50
2012-01-18 09:12 51°31.72 2°54.368 4.5 269 4.2 102520 48
2012-01-18 09:13 51°31.945 2°54.356 6.2 270 4.3 102520 53
2012-01-18 09:14 51°32.164 2°54.408 5.6 24 4.3 102520 50
2012-01-18 09:16 51°32.325 2°54.663 8.1 32 4.4 102520 51
2012-01-18 09:16 51°32.449 2°54.937 9.1 31 4.4 102510 50
2012-01-18 09:18 51°32.532 2°55.14 10.1 34 4.5 102500 50
2012-01-18 09:19 51°32.589 2°55.281 10 32 4.4 102500 50
2012-01-18 09:19 51°32.621 2°55.37 11.4 24 4.3 102490 48
2012-01-18 09:20 51°32.645 2°55.433 12.5 17 4.4 102490 50
2012-01-18 09:21 51°32.67 2°55.476 9.4 13 4.5 102480 50
2012-01-18 09:22 51°32.698 2°55.508 11.2 15 4.6 102490 50
2012-01-18 09:23 51°32.733 2°55.517 12.9 22 4.5 102480 49
2012-01-18 09:25 51°32.766 2°55.491 11.4 36 4.5 102480 49
2012-01-18 09:26 51°32.788 2°55.473 13.3 39 4.4 102490 50
2012-01-18 09:27 51°32.773 2°55.396 12.8 19 4.5 102490 51
2012-01-18 09:28 51°32.717 2°55.343 9.4 27 4.7 102510 51
2012-01-18 09:29 51°32.682 2°55.321 8.8 23 5 102500 52
2012-01-18 09:30 51°32.712 2°55.338 10.6 267 4.9 102520 50
2012-01-18 09:31 51°32.752 2°55.322 6.6 250 4.9 102560 48
2012-01-18 09:32 51°32.78 2°55.291 14.9 20 4.8 102540 51
2012-01-18 09:32 51°32.773 2°55.237 12.9 321 4.8 102490 50
2012-01-18 09:33 51°32.68 2°55.193 19 332 4.7 102510 50
2012-01-18 09:34 51°32.574 2°55.105 14.7 331 4.7 102510 50
2012-01-18 09:36 51°32.487 2°54.993 10.5 318 4.6 102510 49
2012-01-18 09:37 51°32.486 2°54.928 13.2 21 4.7 102490 50
2012-01-18 09:37 51°32.511 2°54.906 13.2 23 4.7 102490 51
2012-01-18 09:38 51°32.545 2°54.912 13.2 253 4.7 102540 49
2012-01-18 09:39 51°32.58 2°54.937 7.6 265 4.7 102540 50
2012-01-18 09:41 51°32.614 2°54.968 9.6 265 4.7 102540 49
2012-01-18 09:41 51°32.64 2°55.006 7.2 266 4.8 102530 51
2012-01-18 09:43 51°32.662 2°55.049 9.5 26 4.8 102530 50
2012-01-18 09:44 51°32.676 2°55.089 11.2 20 4.9 102520 50
2012-01-18 09:45 51°32.685 2°55.126 10.8 20 4.8 102520 51
2012-01-18 09:46 51°32.694 2°55.151 12 24 4.9 102520 50
2012-01-18 09:47 51°32.699 2°55.171 9.9 23 4.9 102520 49
2012-01-18 09:48 51°32.708 2°55.178 10.7 28 4.9 102500 49
2012-01-18 09:49 51°32.72 2°55.168 13 24 4.8 102500 49
2012-01-18 09:50 51°32.727 2°55.151 9.9 26 4.8 102500 49
2012-01-18 09:51 51°32.746 2°55.155 12.7 23 4.8 102510 50
2012-01-18 09:52 51°32.786 2°55.223 12.4 27 4.8 102480 51
2012-01-18 09:53 51°32.814 2°55.277 12 26 4.8 102480 50
2012-01-18 09:53 51°32.841 2°55.314 12.1 19 4.8 102480 49
2012-01-18 09:54 51°32.811 2°55.37 8.5 334 4.8 102470 49
2012-01-18 09:55 51°32.676 2°55.329 19.4 331 4.8 102470 51
2012-01-18 09:56 51°32.521 2°55.238 14.1 330 4.8 102440 50
2012-01-18 09:58 51°32.442 2°55.168 12.7 324 4.8 102430 50
2012-01-18 09:59 51°32.437 2°55.145 10.6 323 4.8 102440 49
2012-01-18 09:59 51°32.452 2°55.147 10.5 330 4.7 102460 50
2012-01-18 10:01 51°32.44 2°55.19 9.4 9 4.6 102440 49
2012-01-18 10:02 51°32.451 2°55.259 11.2 17 4.8 102480 50
2012-01-18 10:02 51°32.483 2°55.275 12.3 26 4.7 102490 49
2012-01-18 10:04 51°32.516 2°55.252 11.7 38 4.8 102490 51
2012-01-18 10:05 51°32.54 2°55.216 10.7 42 4.7 102490 49
2012-01-18 10:06 51°32.55 2°55.174 10.5 20 4.7 102510 50
2012-01-18 10:07 51°32.543 2°55.147 9.2 26 4.7 102520 51
2012-01-18 10:08 51°32.526 2°55.134 9.6 24 5 102520 51
2012-01-18 10:09 51°32.515 2°55.118 11.1 21 4.8 102520 50
2012-01-18 10:10 51°32.514 2°55.098 11.2 25 4.7 102520 50
2012-01-18 10:11 51°32.52 2°55.08 10.6 20 4.7 102520 48
2012-01-18 10:12 51°32.53 2°55.077 6.5 21 4.6 102520 50
2012-01-18 10:13 51°32.547 2°55.086 10.7 20 4.7 102520 49
2012-01-18 10:14 51°32.558 2°55.102 11 24 4.7 102510 49
2012-01-18 10:15 51°32.557 2°55.12 8 24 4.7 102510 50
2012-01-18 10:16 51°32.547 2°55.114 12.6 18 4.7 102510 51
2012-01-18 10:17 51°32.538 2°55.086 13.5 22 4.6 102500 50
2012-01-18 10:18 51°32.53 2°55.071 7.6 22 4.6 102510 51
2012-01-18 10:19 51°32.514 2°55.064 8.7 19 5 102500 48
2012-01-18 10:20 51°32.498 2°55.054 10.8 19 4.8 102490 49
2012-01-18 10:21 51°32.484 2°55.032 11 24 4.6 102490 50
2012-01-18 10:22 51°32.471 2°55.005 11.7 22 4.5 102490 50
2012-01-18 10:23 51°32.47 2°54.987 11.3 27 4.5 102490 49
2012-01-18 10:24 51°32.48 2°54.987 9.1 25 4.4 102480 50
2012-01-18 10:25 51°32.491 2°54.99 8.7 25 4.3 102490 50
2012-01-18 10:26 51°32.506 2°54.998 9.3 26 4.4 102480 49
2012-01-18 10:27 51°32.518 2°55.004 11.4 21 4.5 102480 48
2012-01-18 10:28 51°32.523 2°55.001 12.3 24 4.5 102480 49
2012-01-18 10:29 51°32.53 2°54.989 11.3 24 4.6 102490 50
2012-01-18 10:30 51°32.538 2°54.978 10.4 21 4.5 102480 50
2012-01-18 10:31 51°32.552 2°54.982 10.3 25 4.4 102490 48
2012-01-18 10:32 51°32.59 2°55.027 12.1 32 4.6 102470 50
2012-01-18 10:33 51°32.621 2°55.071 9.4 24 4.6 102480 49
2012-01-18 10:34 51°32.636 2°55.121 11.6 4 4.6 102470 50
2012-01-18 10:34 51°32.64 2°55.167 10.8 356 4.5 102450 49
2012-01-18 10:35 51°32.613 2°55.198 10.7 337 4.5 102460 49
2012-01-18 10:37 51°32.568 2°55.17 14.4 315 4.5 102470 49
2012-01-18 10:38 51°32.555 2°55.046 4.4 23 4.6 102440 50
2012-01-18 10:39 51°32.487 2°54.87 19.5 321 4.6 102480 50
2012-01-18 10:40 51°32.377 2°54.669 6 321 4.6 102460 49
2012-01-18 10:41 51°32.267 2°54.444 7.1 320 4.5 102410 50
2012-01-18 10:42 51°32.169 2°54.201 4.5 315 4.6 102430 49
2012-01-18 10:43 51°32.088 2°53.937 8.4 319 4.6 102420 48
2012-01-18 10:44 51°31.996 2°53.684 4.4 317 4.6 102420 50
2012-01-18 10:45 51°31.896 2°53.436 4.6 318 4.7 102410 49
2012-01-18 10:45 51°31.795 2°53.203 8.6 323 4.7 102420 49
2012-01-18 10:47 51°31.689 2°52.962 8.7 319 4.7 102410 50
2012-01-18 10:47 51°31.596 2°52.718 4.4 318 4.7 102420 48
2012-01-18 10:48 51°31.505 2°52.467 18.1 320 4.6 102420 49
2012-01-18 10:50 51°31.439 2°52.359 11.8 344 4.7 102440 50
2012-01-18 10:51 51°31.427 2°52.413 13.6 21 4.6 102430 49
2012-01-18 10:51 51°31.452 2°52.487 10.8 29 4.6 102470 48
2012-01-18 10:52 51°31.481 2°52.544 12.6 32 4.7 102470 48
2012-01-18 10:54 51°31.518 2°52.602 10.7 40 4.7 102470 50
2012-01-18 10:54 51°31.586 2°52.631 11.6 24 4.8 102470 50
2012-01-18 10:56 51°31.634 2°52.613 8.2 264 4.8 102460 49
2012-01-18 10:57 51°31.663 2°52.621 11.2 263 4.8 102450 48
2012-01-18 10:58 51°31.693 2°52.635 14 259 4.8 102450 49
2012-01-18 10:59 51°31.723 2°52.652 14.1 258 4.8 102440 50
2012-01-18 11:00 51°31.754 2°52.662 12.6 256 4.8 102440 47
2012-01-18 11:01 51°31.764 2°52.593 11.6 321 4.8 102430 49
2012-01-18 11:02 51°31.681 2°52.565 8.1 336 4.8 102440 49
2012-01-18 11:03 51°31.557 2°52.557 19.4 338 4.7 102420 48
2012-01-18 11:03 51°31.43 2°52.548 16.9 336 4.7 102400 49
2012-01-18 11:05 51°31.301 2°52.489 13 334 4.8 102430 49
2012-01-18 11:06 51°31.216 2°52.457 16 337 4.9 102420 48
2012-01-18 11:07 51°31.225 2°52.468 13.7 339 4.9 102440 49
2012-01-18 11:08 51°31.255 2°52.484 14.7 353 5 102440 50
2012-01-18 11:09 51°31.279 2°52.494 6.7 355 5 102420 49
2012-01-18 11:09 51°31.286 2°52.507 12.4 341 4.9 102420 50
2012-01-18 11:11 51°31.283 2°52.516 14.3 333 4.8 102440 50
2012-01-18 11:12 51°31.282 2°52.519 11.4 328 4.7 102440 50
2012-01-18 11:13 51°31.285 2°52.514 9.1 324 4.8 102450 49
2012-01-18 11:13 51°31.285 2°52.51 12.5 323 4.8 102450 48
2012-01-18 11:15 51°31.287 2°52.503 13.6 325 4.8 102430 49
2012-01-18 11:16 51°31.287 2°52.497 12.1 329 4.8 102450 49
2012-01-18 11:17 51°31.288 2°52.501 10.6 336 4.8 102440 49
2012-01-18 11:18 51°31.285 2°52.51 9.8 344 4.8 102430 49
2012-01-18 11:19 51°31.284 2°52.517 17.5 335 4.9 102430 49
2012-01-18 11:19 51°31.284 2°52.516 10.4 328 4.8 102430 49
2012-01-18 11:21 51°31.284 2°52.514 11.1 333 4.8 102430 50
2012-01-18 11:22 51°31.284 2°52.513 12.4 330 4.9 102440 49
2012-01-18 11:23 51°31.285 2°52.51 9.9 330 4.9 102450 50
2012-01-18 11:24 51°31.286 2°52.506 11.2 329 5 102430 48
2012-01-18 11:25 51°31.286 2°52.508 6.1 334 4.9 102420 50
2012-01-18 11:26 51°31.284 2°52.514 12.3 333 4.9 102410 50
2012-01-18 11:26 51°31.285 2°52.514 13.2 329 4.8 102410 49
2012-01-18 11:28 51°31.285 2°52.508 11.6 323 4.9 102420 49
2012-01-18 11:29 51°31.287 2°52.504 15.6 327 4.9 102420 49
2012-01-18 11:30 51°31.287 2°52.502 13.6 334 4.9 102400 50
2012-01-18 11:31 51°31.287 2°52.506 19.5 332 4.9 102400 50
2012-01-18 11:32 51°31.286 2°52.509 11.9 335 4.9 102410 50
2012-01-18 11:33 51°31.286 2°52.51 10.1 333 4.9 102400 50
2012-01-18 11:33 51°31.286 2°52.51 11.8 331 4.9 102400 50
2012-01-18 11:35 51°31.287 2°52.509 12.7 333 4.9 102410 49
2012-01-18 11:36 51°31.286 2°52.511 11.4 333 4.9 102410 48
2012-01-18 11:37 51°31.285 2°52.517 16.4 336 4.9 102410 49
2012-01-18 11:38 51°31.284 2°52.517 13.1 331 4.8 102420 48
2012-01-18 11:39 51°31.284 2°52.514 13.6 329 4.9 102420 49
2012-01-18 11:40 51°31.285 2°52.51 10.5 323 4.9 102410 49
2012-01-18 11:41 51°31.287 2°52.505 13.2 329 4.8 102390 49
2012-01-18 11:42 51°31.288 2°52.503 11.6 334 4.8 102400 50
2012-01-18 11:42 51°31.288 2°52.507 12.9 334 4.8 102390 50
2012-01-18 11:44 51°31.286 2°52.51 12.4 335 4.9 102400 50
2012-01-18 11:45 51°31.285 2°52.514 20.2 333 4.9 102360 50
2012-01-18 11:46 51°31.286 2°52.512 9.9 332 4.8 102390 50
2012-01-18 11:47 51°31.286 2°52.511 6.8 329 5 102400 50
2012-01-18 11:48 51°31.287 2°52.513 8.5 337 4.8 102400 49
2012-01-18 11:49 51°31.285 2°52.517 10.3 335 4.8 102390 50
2012-01-18 11:50 51°31.283 2°52.518 13.9 331 5 102390 50
2012-01-18 11:51 51°31.286 2°52.509 10.1 322 4.8 102390 49
2012-01-18 11:52 51°31.289 2°52.5 13.4 326 4.9 102400 49
2012-01-18 11:53 51°31.29 2°52.503 15.7 342 5 102370 49
2012-01-18 11:54 51°31.286 2°52.516 15.4 344 4.9 102380 51
2012-01-18 11:54 51°31.285 2°52.521 13.4 334 5 102370 50
2012-01-18 11:56 51°31.284 2°52.521 13.7 337 5 102420 49
2012-01-18 11:56 51°31.284 2°52.522 6.6 334 5 102390 51
2012-01-18 11:58 51°31.284 2°52.519 13.4 328 5 102400 50
2012-01-18 11:58 51°31.283 2°52.516 14.6 335 5.1 102390 50
2012-01-18 12:00 51°31.274 2°52.509 15.6 331 5 102370 51
2012-01-18 12:00 51°31.266 2°52.502 14.9 333 5 102390 50
2012-01-18 12:02 51°31.254 2°52.496 13.2 334 5 102400 50
2012-01-18 12:03 51°31.249 2°52.493 14.1 332 5 102360 50
2012-01-18 12:04 51°31.244 2°52.493 10 335 5 102390 50
2012-01-18 12:05 51°31.238 2°52.5 6.3 342 5 102380 50
2012-01-18 12:06 51°31.25 2°52.517 16.8 353 4.9 102370 51
2012-01-18 12:07 51°31.23 2°52.546 17.5 338 4.9 102370 51
2012-01-18 12:08 51°31.161 2°52.467 9.1 324 4.9 102380 50
2012-01-18 12:09 51°31.029 2°52.3 18.4 329 4.9 102350 51
2012-01-18 12:09 51°30.881 2°52.124 13.7 326 5 102370 50
2012-01-18 12:11 51°30.735 2°51.924 16.7 323 5 102360 51
2012-01-18 12:11 51°30.587 2°51.755 15.5 329 5.1 102360 50
2012-01-18 12:12 51°30.44 2°51.564 20.4 322 5.1 102370 50
2012-01-18 12:14 51°30.292 2°51.372 16.9 326 5 102340 50
2012-01-18 12:15 51°30.139 2°51.2 18.8 325 5 102370 50
2012-01-18 12:16 51°29.993 2°51.005 18.4 327 5 102380 51
2012-01-18 12:17 51°29.842 2°50.82 21.4 327 5 102370 51
2012-01-18 12:18 51°29.694 2°50.629 13.2 324 4.9 102360 50
2012-01-18 12:19 51°29.565 2°50.406 19.7 323 4.9 102360 50
2012-01-18 12:19 51°29.433 2°50.19 17.1 324 4.9 102350 50
2012-01-18 12:21 51°29.289 2°49.983 14.1 325 5 102370 51
2012-01-18 12:22 51°29.149 2°49.778 16.5 322 4.9 102360 50
2012-01-18 12:23 51°29.018 2°49.553 15.7 326 4.9 102350 50
2012-01-18 12:24 51°28.881 2°49.346 18.7 323 5 102370 50
2012-01-18 12:25 51°28.738 2°49.139 13.5 323 5 102360 50
2012-01-18 12:25 51°28.606 2°48.922 11.5 325 5.1 102370 51
2012-01-18 12:26 51°28.473 2°48.705 17.8 324 5 102370 50
2012-01-18 12:28 51°28.335 2°48.486 19.5 324 4.9 102360 50
2012-01-18 12:29 51°28.192 2°48.283 8.8 326 4.9 102380 50
2012-01-18 12:30 51°28.055 2°48.065 18.8 325 5 102360 50
2012-01-18 12:30 51°27.924 2°47.849 8.7 326 5 102380 51
2012-01-18 12:32 51°27.781 2°47.637 8.2 327 5 102390 50
2012-01-18 12:32 51°27.646 2°47.427 11.9 326 4.9 102380 51
2012-01-18 12:34 51°27.51 2°47.204 19.5 322 4.9 102380 50
2012-01-18 12:35 51°27.372 2°46.994 19.6 323 4.9 102360 50
2012-01-18 12:36 51°27.238 2°46.77 16.9 322 4.9 102360 51
2012-01-18 12:37 51°27.099 2°46.557 18.9 325 4.9 102370 51
2012-01-18 12:38 51°26.948 2°46.368 22.2 327 4.8 102360 50
2012-01-18 12:39 51°26.799 2°46.176 22.3 323 4.8 102370 50
2012-01-18 12:39 51°26.659 2°45.973 21.2 324 4.8 102360 51
2012-01-18 12:41 51°26.504 2°45.783 21.2 326 4.8 102380 51
2012-01-18 12:41 51°26.352 2°45.605 19.3 325 4.8 102360 50
2012-01-18 12:43 51°26.202 2°45.401 15.8 327 4.8 102360 50
2012-01-18 12:43 51°26.046 2°45.228 5 328 4.8 102370 50
2012-01-18 12:44 51°25.891 2°45.049 6.4 325 4.7 102360 50
2012-01-18 12:46 51°25.741 2°44.85 16.8 322 4.7 102340 49
2012-01-18 12:47 51°25.59 2°44.654 22.9 327 4.8 102330 51
2012-01-18 12:48 51°25.435 2°44.47 21.6 324 4.7 102340 50
2012-01-18 12:49 51°25.282 2°44.279 10.4 325 4.8 102310 50
2012-01-18 12:50 51°25.126 2°44.103 19.6 328 4.7 102310 50
2012-01-18 12:50 51°24.967 2°44.018 11.1 334 4.7 102320 50
2012-01-18 12:52 51°24.894 2°44.009 10.9 336 4.7 102320 49
2012-01-18 12:52 51°24.867 2°43.972 12.7 21 4.7 102330 50
2012-01-18 12:54 51°24.833 2°43.911 16.1 327 4.7 102340 50
2012-01-18 12:55 51°24.769 2°43.82 15.1 321 4.7 102340 50
2012-01-18 12:56 51°24.727 2°43.768 11.3 326 4.7 102340 50
2012-01-18 12:57 51°24.687 2°43.736 13.8 324 4.7 102340 50
2012-01-18 12:58 51°24.678 2°43.713 13 316 4.7 102350 50
2012-01-18 12:59 51°24.694 2°43.721 13.6 251 4.7 102350 50
2012-01-18 13:00 51°24.706 2°43.734 14.4 260 4.7 102380 51
2012-01-18 13:01 51°24.719 2°43.74 10.6 261 4.8 102390 51
2012-01-18 13:02 51°24.734 2°43.663 5.1 24 4.9 102350 50
2012-01-18 13:02 51°24.679 2°43.583 18 341 4.8 102340 49
2012-01-18 13:04 51°24.643 2°43.614 12.8 1 4.7 102360 51
2012-01-18 13:05 51°24.644 2°43.632 8.5 4 4.8 102380 50
2012-01-18 13:06 51°24.652 2°43.648 13.1 14 4.9 102370 50
2012-01-18 13:07 51°24.655 2°43.67 11.1 8 4.9 102360 49
2012-01-18 13:08 51°24.662 2°43.685 6.7 13 4.9 102360 50
2012-01-18 13:09 51°24.666 2°43.7 14.3 9 4.8 102380 50
2012-01-18 13:10 51°24.677 2°43.709 10.8 16 4.8 102390 51
2012-01-18 13:11 51°24.691 2°43.713 13.9 20 4.8 102370 51
2012-01-18 13:12 51°24.704 2°43.717 13 21 4.8 102390 50
2012-01-18 13:13 51°24.69 2°43.756 6.5 355 4.8 102380 51
2012-01-18 13:14 51°24.654 2°43.773 18.3 340 4.8 102330 51
2012-01-18 13:15 51°24.624 2°43.742 10.6 25 4.8 102370 49
2012-01-18 13:15 51°24.63 2°43.704 3 19 4.9 102350 51
2012-01-18 13:17 51°24.644 2°43.698 9.9 263 4.9 102360 50
2012-01-18 13:18 51°24.656 2°43.701 7.1 266 4.9 102370 49
2012-01-18 13:19 51°24.666 2°43.706 11.9 270 5 102370 48
2012-01-18 13:20 51°24.676 2°43.709 7.4 267 5 102360 49
2012-01-18 13:20 51°24.688 2°43.711 7.3 266 4.9 102360 51
2012-01-18 13:22 51°24.7 2°43.716 9.6 267 4.9 102350 49
2012-01-18 13:23 51°24.71 2°43.721 7.7 265 4.9 102390 49
2012-01-18 13:24 51°24.72 2°43.724 10.5 262 5 102360 49
2012-01-18 13:25 51°24.733 2°43.676 10.5 21 5 102320 49
2012-01-18 13:26 51°24.72 2°43.612 9.6 324 5 102320 51
2012-01-18 13:27 51°24.613 2°43.562 16.2 335 5.1 102310 50
2012-01-18 13:28 51°24.562 2°43.541 12.5 342 5.1 102320 50
2012-01-18 13:29 51°24.588 2°43.529 10.7 2 5.2 102330 49
2012-01-18 13:30 51°24.608 2°43.511 10.9 23 5.1 102340 51
2012-01-18 13:31 51°24.604 2°43.569 9.6 26 5.1 102360 49
2012-01-18 13:32 51°24.616 2°43.647 12.6 36 5.1 102360 50
2012-01-18 13:33 51°24.625 2°43.672 12.9 22 5.1 102350 51
2012-01-18 13:34 51°24.631 2°43.677 9.3 21 5.1 102360 50
2012-01-18 13:35 51°24.634 2°43.686 11.2 19 5.1 102340 49
2012-01-18 13:36 51°24.64 2°43.691 13 16 5.1 102370 49
2012-01-18 13:37 51°24.649 2°43.694 6.3 19 5.1 102370 51
2012-01-18 13:38 51°24.656 2°43.7 11.3 21 5.1 102360 50
2012-01-18 13:39 51°24.662 2°43.706 10.2 21 5.2 102370 50
2012-01-18 13:40 51°24.669 2°43.71 12.5 25 5.2 102330 50
2012-01-18 13:41 51°24.675 2°43.716 12.3 21 5.2 102320 49
2012-01-18 13:42 51°24.682 2°43.72 11.5 17 5.2 102320 51
2012-01-18 13:43 51°24.689 2°43.724 11.9 18 5.2 102330 51
2012-01-18 13:44 51°24.695 2°43.727 11.1 21 5.2 102330 51
2012-01-18 13:45 51°24.701 2°43.735 12.5 15 5.3 102330 50
2012-01-18 13:46 51°24.687 2°43.763 13.9 -999 5.2 102330 49
2012-01-18 13:47 51°24.653 2°43.79 13.8 346 5.3 102340 51
2012-01-18 13:48 51°24.604 2°43.743 14.2 23 5.3 102320 50
2012-01-18 13:49 51°24.606 2°43.721 5.7 262 5.4 102320 51
2012-01-18 13:49 51°24.619 2°43.71 7.3 266 5.3 102340 51
2012-01-18 13:51 51°24.633 2°43.693 10 262 5.3 102340 51
2012-01-18 13:52 51°24.648 2°43.665 8.9 264 5.3 102330 51
2012-01-18 13:53 51°24.657 2°43.654 9.9 268 5.3 102330 49
2012-01-18 13:54 51°24.652 2°43.671 10.9 270 5.3 102330 52
2012-01-18 13:55 51°24.645 2°43.68 11.6 19 5.3 102330 50
2012-01-18 13:56 51°24.667 2°43.683 6.4 26 5.3 102340 51
2012-01-18 13:57 51°24.657 2°43.67 6.1 19 5.4 102330 52
2012-01-18 13:58 51°24.671 2°43.692 10.1 35 5.5 102340 51
2012-01-18 13:59 51°24.676 2°43.712 9.8 28 5.5 102340 51
2012-01-18 14:00 51°24.675 2°43.724 8.8 26 5.5 102340 50
2012-01-18 14:01 51°24.673 2°43.733 10.2 19 5.5 102340 50
2012-01-18 14:02 51°24.675 2°43.74 10.4 19 5.5 102340 50
2012-01-18 14:03 51°24.676 2°43.745 11.2 14 5.5 102350 51
2012-01-18 14:03 51°24.678 2°43.748 11.8 17 5.5 102350 49
2012-01-18 14:05 51°24.682 2°43.749 11.4 16 5.5 102330 51
2012-01-18 14:05 51°24.685 2°43.748 11.4 10 5.5 102330 49
2012-01-18 14:07 51°24.689 2°43.749 10.2 18 5.6 102320 49
2012-01-18 14:08 51°24.692 2°43.748 12.2 18 5.6 102330 51
2012-01-18 14:09 51°24.696 2°43.746 11.5 20 5.6 102320 50
2012-01-18 14:10 51°24.681 2°43.78 8.4 7 5.6 102300 50
2012-01-18 14:10 51°24.61 2°43.901 6.6 -999 5.6 102290 50
2012-01-18 14:12 51°24.468 2°44.053 7.9 355 5.6 102260 49
2012-01-18 14:12 51°24.312 2°44.212 8.1 353 5.6 102250 49
2012-01-18 14:14 51°24.139 2°44.378 16.5 354 5.6 102270 50
2012-01-18 14:15 51°23.957 2°44.507 18.5 348 5.4 102270 50
2012-01-18 14:15 51°23.771 2°44.608 8.3 345 5.4 102250 51
2012-01-18 14:17 51°23.578 2°44.713 16.4 349 5.3 102260 51
2012-01-18 14:17 51°23.396 2°44.835 16.5 352 5.2 102270 49
2012-01-18 14:18 51°23.217 2°44.981 7.8 355 5.3 102260 51
2012-01-18 14:20 51°23.036 2°45.126 19.3 352 5.2 102300 50
2012-01-18 14:20 51°22.857 2°45.264 20.1 356 5.2 102280 50
2012-01-18 14:21 51°22.676 2°45.408 8.1 352 5.3 102290 50
2012-01-18 14:23 51°22.489 2°45.546 8.6 353 5.3 102270 50
2012-01-18 14:24 51°22.33 2°45.725 10.1 7 5.3 102270 49
2012-01-18 14:25 51°22.375 2°45.968 7.3 40 5.3 102350 50
2012-01-18 14:25 51°22.471 2°46.221 6.2 42 5.3 102350 49
2012-01-18 14:26 51°22.608 2°46.431 6.1 25 5.4 102360 49
2012-01-18 14:27 51°22.759 2°46.619 4.2 21 5.6 102360 49
2012-01-18 14:28 51°22.9 2°46.833 6.1 43 5.7 102360 51
2012-01-18 14:29 51°23.033 2°47.054 5.9 27 5.5 102350 50
2012-01-18 14:30 51°23.164 2°47.278 5.9 44 5.4 102340 52
2012-01-18 14:31 51°23.304 2°47.487 5.7 38 5.5 102330 50
2012-01-18 14:32 51°23.438 2°47.702 6.5 19 5.4 102330 50
2012-01-18 14:33 51°23.572 2°47.921 7.4 20 5.4 102320 49
2012-01-18 14:34 51°23.708 2°48.132 4.4 23 5.4 102320 51
2012-01-18 14:35 51°23.841 2°48.356 6.2 26 5.4 102310 49
2012-01-18 14:36 51°23.973 2°48.572 6 43 5.5 102320 49
2012-01-18 14:37 51°24.105 2°48.792 5.4 37 5.5 102320 50
2012-01-18 14:39 51°24.242 2°49.009 6.1 40 5.5 102320 51
2012-01-18 14:40 51°24.374 2°49.223 6.7 25 5.5 102320 50
2012-01-18 14:41 51°24.515 2°49.421 5.4 42 5.5 102320 49
2012-01-18 14:42 51°24.66 2°49.613 6.4 26 5.5 102320 51
2012-01-18 14:43 51°24.81 2°49.799 6.2 43 5.4 102320 49
2012-01-18 14:43 51°24.953 2°49.99 4.1 23 5.4 102310 52
2012-01-18 14:44 51°25.097 2°50.179 6.6 19 5.4 102310 51
2012-01-18 14:45 51°25.239 2°50.374 6.9 43 5.5 102310 49
2012-01-18 14:47 51°25.383 2°50.568 4.5 23 5.5 102310 51
2012-01-18 14:47 51°25.528 2°50.752 4.9 24 5.5 102300 49
2012-01-18 14:48 51°25.675 2°50.943 2.9 43 5.5 102300 51
2012-01-18 14:49 51°25.85 2°51.048 6.5 23 5.7 102300 52
2012-01-18 14:50 51°26.034 2°51.126 7.4 25 5.6 102300 52
2012-01-18 14:51 51°26.217 2°51.218 4.9 26 5.7 102300 49
2012-01-18 14:52 51°26.4 2°51.316 5.3 22 5.7 102300 50
2012-01-18 14:54 51°26.58 2°51.451 2.4 25 5.7 102310 52
2012-01-18 14:55 51°26.705 2°51.567 6.5 40 5.9 102300 52
2012-01-18 14:56 51°26.724 2°51.663 11.4 32 5.8 102290 49
2012-01-18 14:57 51°26.725 2°51.699 11.7 31 5.7 102290 50
2012-01-18 14:58 51°26.729 2°51.673 11 38 5.7 102290 49
2012-01-18 14:59 51°26.732 2°51.663 10.9 34 5.7 102280 49
2012-01-18 15:00 51°26.733 2°51.663 13.2 25 5.7 102280 50
2012-01-18 15:01 51°26.731 2°51.667 12.2 17 5.7 102280 50
2012-01-18 15:02 51°26.73 2°51.67 9.5 18 5.7 102270 49
2012-01-18 15:03 51°26.73 2°51.677 13.6 16 5.7 102260 49
2012-01-18 15:04 51°26.728 2°51.679 11 13 5.7 102260 51
2012-01-18 15:05 51°26.73 2°51.681 12.1 16 5.7 102260 51
2012-01-18 15:06 51°26.732 2°51.681 14.3 15 5.7 102270 51
2012-01-18 15:07 51°26.734 2°51.68 12.1 22 5.7 102260 51
2012-01-18 15:08 51°26.734 2°51.679 11.9 22 5.7 102260 51
2012-01-18 15:09 51°26.736 2°51.681 12.7 20 5.7 102250 51
2012-01-18 15:10 51°26.734 2°51.685 13.1 19 5.7 102260 50
2012-01-18 15:11 51°26.734 2°51.687 12.1 17 5.7 102250 51
2012-01-18 15:12 51°26.735 2°51.688 11.7 19 5.8 102250 51
2012-01-18 15:13 51°26.736 2°51.687 12.8 21 5.7 102250 51
2012-01-18 15:14 51°26.738 2°51.686 11.4 22 5.7 102240 51
2012-01-18 15:15 51°26.74 2°51.684 12.7 23 5.7 102250 50
2012-01-18 15:16 51°26.741 2°51.687 12.1 18 5.7 102250 51
2012-01-18 15:17 51°26.741 2°51.69 13.4 17 5.7 102250 49
2012-01-18 15:18 51°26.743 2°51.691 12.8 17 5.7 102250 51
2012-01-18 15:19 51°26.746 2°51.69 11.2 19 5.7 102250 51
2012-01-18 15:20 51°26.747 2°51.689 10.5 18 5.7 102260 51
2012-01-18 15:21 51°26.747 2°51.689 13.2 15 5.8 102270 51
2012-01-18 15:22 51°26.748 2°51.691 11 20 5.8 102260 50
2012-01-18 15:23 51°26.746 2°51.694 15.9 14 5.8 102260 51
2012-01-18 15:24 51°26.744 2°51.697 12.4 14 5.8 102280 52
2012-01-18 15:25 51°26.742 2°51.7 12.1 13 5.8 102270 51
2012-01-18 15:26 51°26.741 2°51.701 11.6 14 5.8 102270 51
2012-01-18 15:26 51°26.742 2°51.7 12.2 23 5.8 102270 51
2012-01-18 15:28 51°26.742 2°51.7 11.5 17 5.8 102270 51
2012-01-18 15:29 51°26.744 2°51.699 10.5 24 5.8 102260 50
2012-01-18 15:30 51°26.745 2°51.698 12.4 19 5.9 102270 51
2012-01-18 15:31 51°26.744 2°51.7 12.4 19 5.9 102290 51
2012-01-18 15:32 51°26.744 2°51.7 15.2 16 5.9 102250 51
2012-01-18 15:33 51°26.744 2°51.7 12.4 17 6 102260 50
2012-01-18 15:33 51°26.748 2°51.694 11.2 21 5.9 102260 52
2012-01-18 15:34 51°26.75 2°51.69 12.2 24 5.9 102260 51
2012-01-18 15:35 51°26.748 2°51.694 9.9 17 5.9 102260 51
2012-01-18 15:36 51°26.739 2°51.704 14.1 11 6 102250 51
2012-01-18 15:37 51°26.736 2°51.708 11.1 16 5.9 102250 51
2012-01-18 15:38 51°26.737 2°51.71 11.2 21 6 102260 51
2012-01-18 15:39 51°26.737 2°51.715 12 20 6 102280 52
2012-01-18 15:40 51°26.723 2°51.737 10.9 3 6 102280 52
2012-01-18 15:41 51°26.663 2°51.747 7.2 345 6 102250 51
2012-01-18 15:42 51°26.498 2°51.761 17.3 348 6 102240 50
2012-01-18 15:44 51°26.289 2°51.759 8.3 342 6.1 102260 51
2012-01-18 15:45 51°26.085 2°51.721 19.9 340 6 102250 51
2012-01-18 15:46 51°25.88 2°51.702 19.8 339 6.1 102250 51
2012-01-18 15:46 51°25.679 2°51.698 13.3 347 6.1 102230 51
2012-01-18 15:47 51°25.474 2°51.696 13.7 343 6.1 102210 50
2012-01-18 15:48 51°25.267 2°51.682 21 341 6.1 102230 51
2012-01-18 15:49 51°25.059 2°51.668 19.2 342 6.1 102220 50
2012-01-18 15:50 51°24.852 2°51.655 21.3 344 6 102230 50
2012-01-18 15:51 51°24.645 2°51.647 7.1 344 6.1 102230 51
2012-01-18 15:52 51°24.438 2°51.64 14.9 344 6.1 102250 51
2012-01-18 15:53 51°24.229 2°51.63 15.2 339 6 102240 50
2012-01-18 15:54 51°24.021 2°51.618 8.1 342 6 102250 51
2012-01-18 15:55 51°23.813 2°51.623 17.3 343 6 102250 50
2012-01-18 15:56 51°23.605 2°51.616 13.4 343 6 102260 51
2012-01-18 15:57 51°23.399 2°51.613 15.4 345 6 102270 51
2012-01-18 15:58 51°23.192 2°51.609 8.5 343 6 102270 50
2012-01-18 15:59 51°22.983 2°51.613 14.8 343 6 102270 51
2012-01-18 16:00 51°22.775 2°51.609 8.3 343 5.9 102270 51
2012-01-18 16:01 51°22.566 2°51.6 7.6 342 5.9 102270 51
2012-01-18 16:02 51°22.357 2°51.595 7.4 342 5.9 102270 50
2012-01-18 16:03 51°22.149 2°51.602 12.6 341 5.9 102270 51
2012-01-18 16:04 51°21.943 2°51.597 7.2 342 5.9 102270 50
2012-01-18 16:05 51°21.736 2°51.596 6.6 346 5.9 102270 51
2012-01-18 16:06 51°21.534 2°51.654 5 347 5.9 102270 50
2012-01-18 16:07 51°21.329 2°51.703 7.4 346 5.9 102280 51
2012-01-18 16:08 51°21.123 2°51.747 7.9 345 5.8 102290 50
2012-01-18 16:09 51°20.917 2°51.789 3.3 345 5.8 102280 52
2012-01-18 16:10 51°20.71 2°51.809 7.6 344 5.8 102270 51
2012-01-18 16:11 51°20.506 2°51.836 8.3 347 5.8 102280 51
2012-01-18 16:12 51°20.303 2°51.879 19.7 344 5.8 102270 51
2012-01-18 16:13 51°20.1 2°51.908 8.1 344 5.8 102280 51
2012-01-18 16:14 51°19.895 2°51.917 7.2 346 5.8 102270 49
2012-01-18 16:15 51°19.69 2°51.934 7.4 344 5.8 102280 50
2012-01-18 16:16 51°19.484 2°51.949 12.6 343 5.7 102280 51
2012-01-18 16:17 51°19.278 2°51.971 16.2 344 5.7 102280 51
2012-01-18 16:18 51°19.073 2°51.991 8.3 346 5.7 102280 51
2012-01-18 16:19 51°18.868 2°52.007 11.8 344 5.7 102280 51
2012-01-18 16:20 51°18.665 2°52.02 6.8 345 5.7 102270 50
2012-01-18 16:21 51°18.46 2°52.054 13.8 344 5.7 102270 50
2012-01-18 16:22 51°18.256 2°52.097 8 345 5.7 102280 50
2012-01-18 16:23 51°18.052 2°52.135 19.4 344 5.7 102280 51
2012-01-18 16:24 51°17.848 2°52.171 6.5 342 5.6 102290 50
2012-01-18 16:25 51°17.643 2°52.202 13.9 344 5.6 102290 51
2012-01-18 16:26 51°17.439 2°52.25 7.3 344 5.6 102290 49
2012-01-18 16:27 51°17.251 2°52.368 15.2 352 5.6 102290 50
2012-01-18 16:28 51°17.083 2°52.552 6.8 357 5.6 102290 52
2012-01-18 16:29 51°16.926 2°52.763 13 354 5.5 102280 51
2012-01-18 16:30 51°16.773 2°52.978 13.5 356 5.5 102310 50
2012-01-18 16:31 51°16.63 2°53.215 10.5 358 5.5 102300 51
2012-01-18 16:32 51°16.485 2°53.447 15.1 356 5.5 102310 51
2012-01-18 16:33 51°16.34 2°53.677 7 357 5.4 102310 50
2012-01-18 16:34 51°16.215 2°53.928 9.9 6 5.4 102310 50
2012-01-18 16:35 51°16.167 2°54.157 10.5 16 5.4 102330 50
2012-01-18 16:36 51°16.183 2°54.293 7 21 5.4 102330 49
2012-01-18 16:37 51°16.242 2°54.3 6.2 267 5.4 102350 50
2012-01-18 16:38 51°16.263 2°54.291 7.3 265 5.3 102360 49
2012-01-18 16:39 51°16.269 2°54.304 6.3 266 5.3 102360 49
2012-01-18 16:40 51°16.275 2°54.319 7.1 267 5.3 102370 50
2012-01-18 16:42 51°16.285 2°54.331 5.6 266 5.4 102350 50
2012-01-18 16:43 51°16.297 2°54.263 11.1 19 5.3 102350 50
2012-01-18 16:44 51°16.196 2°54.153 12.8 336 5.3 102310 50
2012-01-18 16:45 51°16.009 2°54.17 7.5 344 5.3 102300 50
2012-01-18 16:46 51°15.815 2°54.243 12.2 342 5.3 102310 50
2012-01-18 16:47 51°15.618 2°54.287 13.7 342 5.2 102310 50
2012-01-18 16:48 51°15.422 2°54.336 15.7 343 5.2 102320 51
2012-01-18 16:49 51°15.231 2°54.414 11.1 345 5.2 102310 50
2012-01-18 16:50 51°15.04 2°54.5 12.3 342 5.2 102330 50
2012-01-18 16:51 51°14.862 2°54.642 13.8 350 5.2 102320 51
2012-01-18 16:52 51°14.698 2°54.828 11.4 355 5.1 102310 51
2012-01-18 16:53 51°14.541 2°55.025 13.1 347 5 102330 50
2012-01-18 16:54 51°14.373 2°55.205 8 351 5 102330 51
2012-01-18 16:55 51°14.236 2°55.333 7 339 5 102340 49
2012-01-18 16:56 51°14.102 2°55.434 7 336 4.9 102340 49
2012-01-18 16:57 51°13.984 2°55.518 8.3 346 4.9 102350 50
2012-01-18 16:58 51°13.867 2°55.601 7.2 340 4.9 102350 49
2012-01-18 16:59 51°13.775 2°55.687 5.3 357 4.9 102350 51
2012-01-18 17:00 51°13.711 2°55.796 6.8 8 4.9 102350 52
2012-01-18 17:01 51°13.663 2°55.902 4.1 8 4.9 102360 49
2012-01-18 17:02 51°13.641 2°55.994 5 360 4.8 102370 52
2012-01-18 17:03 51°13.636 2°56.018 3.5 16 4.9 102360 51